Time;durP1;ratioP1;P1;durP2;ratioP2;P2;SDS_P1;SDS_P2;PMS_P1;PMS_P2;Temp;Humidity;BMP_temperature;BMP_pressure;BME280_temperature;BME280_humidity;BME280_pressure;Samples;Min_cycle;Max_cycle;Signal;HPM_P1;HPM_P2
2022/09/06 06:03:13;;;;;;;7.20;5.65;;;;;;;18.41;72.85;100900.97;6626074;26;141003;-87
2022/09/06 06:06:16;;;;;;;6.85;5.45;;;;;;;18.46;67.14;100900.66;6632048;26;34532;-86
2022/09/06 06:09:19;;;;;;;9.05;5.97;;;;;;;18.61;61.54;100897.78;6631712;26;34154;-90
2022/09/06 06:12:22;;;;;;;7.35;5.45;;;;;;;18.92;60.17;100893.63;6631945;26;34115;-91
2022/09/06 06:15:24;;;;;;;8.93;5.97;;;;;;;18.75;59.91;100888.69;6632129;26;34712;-91
2022/09/06 06:18:28;;;;;;;7.87;5.97;;;;;;;18.74;58.77;100900.41;6634030;26;35211;-89
2022/09/06 06:21:32;;;;;;;8.18;6.00;;;;;;;18.95;59.01;100896.06;6632980;26;33691;-88
2022/09/06 06:24:35;;;;;;;6.47;5.82;;;;;;;18.99;60.04;100902.03;6612389;26;34066;-88
2022/09/06 06:27:38;;;;;;;7.62;5.25;;;;;;;19.41;57.47;100898.00;6632405;26;33662;-87
2022/09/06 06:30:40;;;;;;;12.18;5.32;;;;;;;19.46;55.37;100890.41;6632680;26;34448;-87
2022/09/06 06:33:43;;;;;;;8.85;5.40;;;;;;;20.16;54.61;100890.25;6612635;26;32884;-85
2022/09/06 06:36:46;;;;;;;8.25;5.12;;;;;;;20.87;51.69;100896.97;6633655;26;34009;-86
2022/09/06 06:39:49;;;;;;;8.75;5.00;;;;;;;21.00;48.83;100896.75;6635009;26;35283;-87
2022/09/06 06:42:54;;;;;;;5.30;4.60;;;;;;;20.95;49.70;100902.56;6634903;26;35626;-86
2022/09/06 06:45:59;;;;;;;6.65;5.07;;;;;;;21.40;48.32;100903.22;6633376;26;34056;-87
2022/09/06 06:49:02;;;;;;;6.05;4.60;;;;;;;21.59;48.08;100904.31;6614274;26;33652;-89
2022/09/06 06:52:05;;;;;;;6.65;5.40;;;;;;;21.90;47.70;100904.28;6633991;26;33662;-89
2022/09/06 06:55:08;;;;;;;11.15;5.05;;;;;;;21.28;48.70;100906.00;6633719;26;33648;-89
2022/09/06 06:58:11;;;;;;;10.75;5.50;;;;;;;21.37;50.14;100909.75;6614020;26;33155;-88
2022/09/06 07:01:15;;;;;;;7.60;5.32;;;;;;;21.69;48.36;100907.91;6632275;26;34010;-89
2022/09/06 09:18:49;;;;;;;6.07;5.35;;;;;;;27.47;36.23;100871.03;6605985;26;20060;-90
2022/09/06 10:03:33;;;;;;;12.70;4.85;;;;;;;30.35;33.44;100809.34;6607970;26;20091;-89
2022/09/06 10:06:37;;;;;;;6.03;4.53;;;;;;;30.60;33.40;100796.06;6615884;26;33978;-88
2022/09/06 10:10:32;;;;;;;5.22;4.72;;;;;;;30.52;32.83;100799.81;6635742;26;34277;-91
2022/09/06 10:13:35;;;;;;;4.82;4.43;;;;;;;30.22;33.93;100794.50;6645068;26;34109;-91
2022/09/06 10:51:22;;;;;;;6.70;4.62;;;;;;;35.66;26.56;100759.81;6634858;26;20306;-90
2022/09/06 10:54:25;;;;;;;6.57;4.82;;;;;;;37.96;23.05;100756.22;6633998;26;33947;-88
2022/09/06 11:01:52;;;;;;;8.00;4.40;;;;;;;36.46;24.47;100749.37;6638305;26;20044;-88
2022/09/06 11:05:02;;;;;;;15.38;5.50;;;;;;;33.53;28.08;100758.69;6622458;26;33704;-88
2022/09/06 11:08:41;;;;;;;4.53;4.07;;;;;;;32.16;30.20;100753.72;6635455;26;34804;-89
2022/09/06 11:12:15;;;;;;;5.87;3.95;;;;;;;31.90;31.42;100755.41;6614991;26;32681;-88
2022/09/06 11:15:20;;;;;;;6.35;4.15;;;;;;;31.49;32.48;100748.97;6612709;26;33680;-87
2022/09/06 11:18:52;;;;;;;5.40;4.22;;;;;;;31.31;32.64;100746.78;6631907;26;34581;-88
2022/09/06 11:22:10;;;;;;;5.22;4.32;;;;;;;32.28;30.83;100745.69;6634653;26;34251;-88
2022/09/06 11:25:31;;;;;;;8.30;4.40;;;;;;;33.12;29.00;100747.03;6633346;26;33890;-88
2022/09/06 11:29:06;;;;;;;6.37;4.72;;;;;;;31.90;31.60;100738.94;6610270;26;33551;-88
2022/09/06 11:32:39;;;;;;;6.82;4.43;;;;;;;30.72;32.56;100724.38;6613537;26;33862;-88
2022/09/06 11:35:47;;;;;;;9.00;5.93;;;;;;;31.26;32.39;100721.87;6635013;26;33941;-88
2022/09/06 11:39:07;;;;;;;6.78;4.78;;;;;;;30.77;34.07;100716.41;6613809;26;33180;-88
2022/09/06 11:42:52;;;;;;;5.15;4.35;;;;;;;30.55;33.06;100716.44;6632327;26;33960;-87
2022/09/06 11:46:01;;;;;;;4.82;4.10;;;;;;;29.57;34.61;100715.22;6631911;26;34360;-87
2022/09/06 11:49:05;;;;;;;4.65;4.25;;;;;;;29.67;35.49;100702.03;6638912;26;34511;-87
2022/09/06 11:53:01;;;;;;;7.43;4.00;;;;;;;29.38;35.29;100697.53;6632730;26;34158;-86
2022/09/06 11:56:29;;;;;;;6.22;4.62;;;;;;;29.58;35.25;100695.03;6611948;26;33696;-87
2022/09/06 11:59:46;;;;;;;8.60;4.40;;;;;;;28.82;37.09;100704.38;6633174;26;33586;-86
2022/09/06 12:02:50;;;;;;;8.10;4.30;;;;;;;28.41;36.97;100698.34;6634126;26;33935;-86
2022/09/06 12:06:17;;;;;;;5.65;4.78;;;;;;;28.60;37.77;100686.03;6636981;26;34824;-87
2022/09/06 12:09:29;;;;;;;6.03;4.90;;;;;;;28.73;37.07;100677.19;6631123;26;34100;-86
2022/09/06 12:12:41;;;;;;;4.97;4.57;;;;;;;28.55;37.56;100680.28;6617723;26;32401;-86
2022/09/06 12:15:45;;;;;;;5.12;4.70;;;;;;;28.95;36.29;100674.56;6637089;26;33862;-87
2022/09/06 12:18:48;;;;;;;3.92;3.62;;;;;;;28.82;37.54;100675.22;6618988;26;32895;-88
2022/09/06 12:22:25;;;;;;;3.78;3.40;;;;;;;28.44;37.06;100669.84;6563615;26;33403;-88
2022/09/06 12:25:34;;;;;;;3.83;3.53;;;;;;;27.83;38.87;100664.28;6635960;26;34136;-87
2022/09/06 12:28:45;;;;;;;5.15;2.97;;;;;;;27.65;39.11;100661.03;6635510;26;34835;-87
2022/09/06 12:31:55;;;;;;;3.50;3.20;;;;;;;27.67;36.72;100651.66;6636458;26;33448;-86
2022/09/06 12:34:59;;;;;;;3.33;3.00;;;;;;;28.26;36.70;100643.81;6636045;26;34332;-89
2022/09/06 12:38:36;;;;;;;3.58;3.28;;;;;;;28.82;35.23;100644.34;6626343;26;20068;-87
2022/09/06 12:41:53;;;;;;;3.00;2.80;;;;;;;27.97;37.42;100634.53;6637641;26;33100;-88
2022/09/06 12:45:32;;;;;;;5.50;3.58;;;;;;;27.99;35.83;100629.72;6622170;26;32900;-87
2022/09/06 12:56:20;;;;;;;7.43;3.10;;;;;;;28.15;37.16;100619.69;6634031;26;20035;-87
2022/09/06 12:59:25;;;;;;;6.68;3.10;;;;;;;28.36;36.04;100610.78;6634998;26;34261;-87
2022/09/06 13:02:51;;;;;;;3.20;2.90;;;;;;;28.50;36.27;100609.06;6617726;26;34086;-89
2022/09/06 13:05:59;;;;;;;5.20;2.70;;;;;;;27.88;36.70;100608.34;6612581;26;32910;-88
2022/09/06 13:09:03;;;;;;;3.55;3.10;;;;;;;27.90;37.17;100600.88;6616030;26;34225;-88
2022/09/06 13:12:16;;;;;;;3.28;3.05;;;;;;;28.01;36.09;100588.66;6635612;26;34113;-88
2022/09/06 13:19:38;;;;;;;3.70;2.53;;;;;;;28.08;36.65;100576.81;6632430;26;20315;-89
2022/09/06 13:26:46;;;;;;;3.10;2.75;;;;;;;27.73;35.38;100576.50;6606985;26;20063;-88
2022/09/06 13:30:05;;;;;;;3.55;2.95;;;;;;;27.71;35.79;100568.50;6633718;26;34852;-88
2022/09/06 13:33:24;;;;;;;5.18;2.62;;;;;;;27.18;37.21;100572.00;6614308;26;33045;-88
2022/09/06 13:36:35;;;;;;;3.20;2.90;;;;;;;27.01;37.92;100568.50;6628626;26;33704;-88
2022/09/06 13:39:43;;;;;;;7.93;3.20;;;;;;;26.95;38.89;100561.06;6610791;26;33320;-88
2022/09/06 13:43:12;;;;;;;5.35;3.00;;;;;;;27.12;38.26;100567.28;6634059;26;34480;-88
2022/09/06 13:46:19;;;;;;;3.87;3.05;;;;;;;27.00;37.95;100563.28;6634014;26;32581;-88
2022/09/06 13:49:23;;;;;;;3.40;2.90;;;;;;;26.58;38.49;100558.03;6614112;26;34137;-88
2022/09/06 13:52:26;;;;;;;3.87;3.17;;;;;;;26.49;39.10;100553.62;6634250;26;34611;-88
2022/09/06 13:55:31;;;;;;;3.03;2.83;;;;;;;26.58;38.77;100549.88;6635530;26;33805;-88
2022/09/06 13:58:36;;;;;;;4.78;3.10;;;;;;;26.55;39.37;100552.09;6633135;26;34306;-88
2022/09/06 14:02:08;;;;;;;8.48;3.10;;;;;;;26.27;39.20;100545.25;6613387;26;32717;-88
2022/09/06 14:05:11;;;;;;;3.05;2.80;;;;;;;26.47;38.64;100547.53;6634196;26;34916;-88
2022/09/06 14:08:14;;;;;;;3.33;3.00;;;;;;;26.36;39.35;100537.91;6612407;26;33034;-86
2022/09/06 14:11:17;;;;;;;8.50;3.40;;;;;;;26.46;39.67;100537.69;6634032;26;34813;-89
2022/09/06 14:32:45;;;;;;;6.87;3.60;;;;;;;26.17;42.73;100540.00;6635299;26;33615;-87
2022/09/06 14:35:48;;;;;;;5.18;3.62;;;;;;;26.01;42.13;100535.47;6634664;26;34625;-87
2022/09/06 14:38:52;;;;;;;3.90;3.45;;;;;;;26.09;42.40;100526.41;6615134;26;32984;-86
2022/09/06 14:41:55;;;;;;;8.82;4.15;;;;;;;25.95;43.38;100528.84;6614702;26;34079;-87
2022/09/06 14:44:57;;;;;;;5.65;3.22;;;;;;;25.91;45.87;100521.22;6638056;26;34441;-87
2022/09/06 14:48:01;;;;;;;4.65;3.53;;;;;;;25.84;46.24;100521.03;6614448;26;33570;-87
2022/09/06 14:51:20;;;;;;;7.03;3.95;;;;;;;25.76;46.14;100521.94;6633651;26;34325;-87
2022/09/06 14:54:23;;;;;;;4.32;3.92;;;;;;;25.76;46.38;100530.09;6619650;26;33423;-88
2022/09/06 14:57:30;;;;;;;4.35;3.92;;;;;;;25.53;46.86;100525.37;6642901;26;36684;-87
2022/09/06 15:00:33;;;;;;;7.15;4.03;;;;;;;25.65;44.01;100519.59;6633636;26;34733;-87
2022/09/06 15:03:36;;;;;;;5.70;4.00;;;;;;;25.58;46.60;100522.13;6614810;26;32795;-88
2022/09/06 15:06:43;;;;;;;6.78;3.80;;;;;;;25.55;45.36;100519.75;6634015;26;33855;-87
2022/09/06 15:09:46;;;;;;;5.30;4.03;;;;;;;25.57;46.89;100523.16;6614164;26;33216;-88
2022/09/06 15:12:49;;;;;;;4.15;3.67;;;;;;;25.53;47.60;100527.22;6634380;26;34615;-87
2022/09/06 15:15:54;;;;;;;3.80;3.45;;;;;;;25.44;48.29;100524.50;6614365;26;33286;-88
2022/09/06 15:18:57;;;;;;;8.80;4.35;;;;;;;25.50;47.24;100522.13;6633574;26;34760;-88
2022/09/06 15:22:00;;;;;;;8.60;4.07;;;;;;;25.60;47.02;100522.81;6634644;26;34088;-88
2022/09/06 15:25:03;;;;;;;10.75;4.00;;;;;;;25.54;47.19;100516.19;6634264;26;33743;-88
2022/09/06 15:28:06;;;;;;;6.37;3.80;;;;;;;25.50;48.13;100516.69;6634987;26;34552;-88
